sensor_id;sensor_type;location;lat;lon;timestamp;P1;durP1;ratioP1;P2;durP2;ratioP2
14907;SDS011;7545;52.092;7.006;2022-09-20T00:01:06;4.00;;;2.15;;
14907;SDS011;7545;52.092;7.006;2022-09-20T00:03:41;2.38;;;1.10;;
14907;SDS011;7545;52.092;7.006;2022-09-20T00:06:10;3.05;;;1.33;;
14907;SDS011;7545;52.092;7.006;2022-09-20T00:08:38;5.20;;;1.10;;
14907;SDS011;7545;52.092;7.006;2022-09-20T00:11:05;4.88;;;1.13;;
14907;SDS011;7545;52.092;7.006;2022-09-20T00:13:34;5.40;;;1.52;;
14907;SDS011;7545;52.092;7.006;2022-09-20T00:16:03;4.32;;;1.23;;
14907;SDS011;7545;52.092;7.006;2022-09-20T00:18:30;4.65;;;1.08;;
14907;SDS011;7545;52.092;7.006;2022-09-20T00:20:56;7.55;;;3.38;;
14907;SDS011;7545;52.092;7.006;2022-09-20T00:23:21;3.28;;;1.23;;
14907;SDS011;7545;52.092;7.006;2022-09-20T00:25:53;4.40;;;1.15;;
14907;SDS011;7545;52.092;7.006;2022-09-20T00:28:27;4.30;;;1.30;;
14907;SDS011;7545;52.092;7.006;2022-09-20T00:30:53;3.47;;;1.38;;
14907;SDS011;7545;52.092;7.006;2022-09-20T00:33:20;3.33;;;1.50;;
14907;SDS011;7545;52.092;7.006;2022-09-20T00:35:52;2.30;;;1.23;;
14907;SDS011;7545;52.092;7.006;2022-09-20T00:38:18;6.10;;;1.27;;
14907;SDS011;7545;52.092;7.006;2022-09-20T00:40:43;6.80;;;1.60;;
14907;SDS011;7545;52.092;7.006;2022-09-20T00:43:13;3.17;;;1.60;;
14907;SDS011;7545;52.092;7.006;2022-09-20T00:45:43;3.75;;;1.38;;
14907;SDS011;7545;52.092;7.006;2022-09-20T00:48:18;3.80;;;1.00;;
14907;SDS011;7545;52.092;7.006;2022-09-20T00:51:04;7.05;;;1.20;;
14907;SDS011;7545;52.092;7.006;2022-09-20T00:53:37;5.30;;;1.27;;
14907;SDS011;7545;52.092;7.006;2022-09-20T00:56:07;4.85;;;1.65;;
14907;SDS011;7545;52.092;7.006;2022-09-20T00:58:37;2.78;;;1.10;;
14907;SDS011;7545;52.092;7.006;2022-09-20T01:01:06;5.78;;;1.42;;
14907;SDS011;7545;52.092;7.006;2022-09-20T01:03:32;2.72;;;1.15;;
14907;SDS011;7545;52.092;7.006;2022-09-20T01:06:01;5.43;;;1.30;;
14907;SDS011;7545;52.092;7.006;2022-09-20T01:08:31;1.88;;;0.98;;
14907;SDS011;7545;52.092;7.006;2022-09-20T01:10:59;2.17;;;1.02;;
14907;SDS011;7545;52.092;7.006;2022-09-20T01:13:25;4.30;;;1.13;;
14907;SDS011;7545;52.092;7.006;2022-09-20T01:15:51;2.72;;;0.73;;
14907;SDS011;7545;52.092;7.006;2022-09-20T01:18:18;6.15;;;1.33;;
14907;SDS011;7545;52.092;7.006;2022-09-20T01:20:46;3.35;;;2.00;;
14907;SDS011;7545;52.092;7.006;2022-09-20T01:28:12;5.57;;;1.08;;
14907;SDS011;7545;52.092;7.006;2022-09-20T01:36:07;3.10;;;0.93;;
14907;SDS011;7545;52.092;7.006;2022-09-20T01:38:52;6.57;;;1.15;;
14907;SDS011;7545;52.092;7.006;2022-09-20T01:41:45;4.07;;;1.35;;
14907;SDS011;7545;52.092;7.006;2022-09-20T01:44:35;2.75;;;0.80;;
14907;SDS011;7545;52.092;7.006;2022-09-20T01:47:10;4.18;;;1.25;;
14907;SDS011;7545;52.092;7.006;2022-09-20T02:06:33;4.88;;;1.45;;
14907;SDS011;7545;52.092;7.006;2022-09-20T02:21:13;4.80;;;1.30;;
14907;SDS011;7545;52.092;7.006;2022-09-20T02:23:55;4.68;;;1.35;;
14907;SDS011;7545;52.092;7.006;2022-09-20T02:34:31;5.60;;;1.27;;
14907;SDS011;7545;52.092;7.006;2022-09-20T02:42:48;5.00;;;1.92;;
14907;SDS011;7545;52.092;7.006;2022-09-20T02:48:11;2.30;;;1.10;;
14907;SDS011;7545;52.092;7.006;2022-09-20T02:51:17;2.33;;;1.20;;
14907;SDS011;7545;52.092;7.006;2022-09-20T02:53:44;4.53;;;1.17;;
14907;SDS011;7545;52.092;7.006;2022-09-20T02:56:36;6.47;;;2.28;;
14907;SDS011;7545;52.092;7.006;2022-09-20T03:02:18;2.40;;;1.30;;
14907;SDS011;7545;52.092;7.006;2022-09-20T03:05:07;6.85;;;1.15;;
14907;SDS011;7545;52.092;7.006;2022-09-20T03:10:53;7.13;;;1.58;;
14907;SDS011;7545;52.092;7.006;2022-09-20T03:19:13;5.07;;;1.10;;
14907;SDS011;7545;52.092;7.006;2022-09-20T03:21:58;7.07;;;3.33;;
14907;SDS011;7545;52.092;7.006;2022-09-20T03:24:43;3.95;;;1.20;;
14907;SDS011;7545;52.092;7.006;2022-09-20T03:27:37;8.77;;;1.48;;
14907;SDS011;7545;52.092;7.006;2022-09-20T03:41:11;6.63;;;1.20;;
14907;SDS011;7545;52.092;7.006;2022-09-20T04:05:49;4.22;;;1.50;;
14907;SDS011;7545;52.092;7.006;2022-09-20T04:08:32;7.55;;;3.17;;
14907;SDS011;7545;52.092;7.006;2022-09-20T04:16:50;5.18;;;1.23;;
14907;SDS011;7545;52.092;7.006;2022-09-20T04:19:25;7.20;;;1.40;;
14907;SDS011;7545;52.092;7.006;2022-09-20T04:21:57;3.13;;;1.15;;
14907;SDS011;7545;52.092;7.006;2022-09-20T04:26:57;7.78;;;1.58;;
14907;SDS011;7545;52.092;7.006;2022-09-20T04:29:28;7.38;;;1.75;;
14907;SDS011;7545;52.092;7.006;2022-09-20T04:32:01;4.65;;;3.15;;
14907;SDS011;7545;52.092;7.006;2022-09-20T04:34:39;3.10;;;1.23;;
14907;SDS011;7545;52.092;7.006;2022-09-20T04:37:36;6.40;;;2.25;;
14907;SDS011;7545;52.092;7.006;2022-09-20T05:13:11;3.72;;;1.33;;
14907;SDS011;7545;52.092;7.006;2022-09-20T05:29:44;4.35;;;2.30;;
14907;SDS011;7545;52.092;7.006;2022-09-20T05:32:32;9.07;;;1.55;;
14907;SDS011;7545;52.092;7.006;2022-09-20T05:38:15;6.65;;;1.60;;
14907;SDS011;7545;52.092;7.006;2022-09-20T05:40:56;3.38;;;1.20;;
14907;SDS011;7545;52.092;7.006;2022-09-20T05:46:43;5.93;;;1.55;;
14907;SDS011;7545;52.092;7.006;2022-09-20T05:52:51;6.93;;;1.52;;
14907;SDS011;7545;52.092;7.006;2022-09-20T06:03:41;2.08;;;1.15;;
14907;SDS011;7545;52.092;7.006;2022-09-20T06:12:19;4.60;;;2.50;;
14907;SDS011;7545;52.092;7.006;2022-09-20T06:17:26;4.30;;;1.80;;
14907;SDS011;7545;52.092;7.006;2022-09-20T06:22:52;6.72;;;2.13;;
14907;SDS011;7545;52.092;7.006;2022-09-20T06:25:22;5.75;;;2.38;;
14907;SDS011;7545;52.092;7.006;2022-09-20T06:27:57;4.10;;;1.83;;
14907;SDS011;7545;52.092;7.006;2022-09-20T06:30:33;5.00;;;1.92;;
14907;SDS011;7545;52.092;7.006;2022-09-20T06:35:39;5.70;;;2.45;;
14907;SDS011;7545;52.092;7.006;2022-09-20T06:41:11;8.13;;;1.95;;
14907;SDS011;7545;52.092;7.006;2022-09-20T06:43:59;6.75;;;1.92;;
14907;SDS011;7545;52.092;7.006;2022-09-20T06:46:29;3.95;;;1.58;;
14907;SDS011;7545;52.092;7.006;2022-09-20T06:48:57;5.35;;;1.88;;
14907;SDS011;7545;52.092;7.006;2022-09-20T06:51:23;5.05;;;1.70;;
14907;SDS011;7545;52.092;7.006;2022-09-20T06:53:50;4.82;;;2.00;;
14907;SDS011;7545;52.092;7.006;2022-09-20T06:56:18;6.90;;;2.53;;
14907;SDS011;7545;52.092;7.006;2022-09-20T06:58:47;4.63;;;1.90;;
14907;SDS011;7545;52.092;7.006;2022-09-20T07:01:12;10.13;;;3.53;;
14907;SDS011;7545;52.092;7.006;2022-09-20T07:03:39;3.55;;;1.48;;
14907;SDS011;7545;52.092;7.006;2022-09-20T07:06:05;6.45;;;2.33;;
14907;SDS011;7545;52.092;7.006;2022-09-20T07:08:32;6.65;;;2.00;;
14907;SDS011;7545;52.092;7.006;2022-09-20T07:11:05;9.95;;;2.20;;
14907;SDS011;7545;52.092;7.006;2022-09-20T07:13:33;4.38;;;2.00;;
14907;SDS011;7545;52.092;7.006;2022-09-20T07:16:01;5.35;;;2.08;;
14907;SDS011;7545;52.092;7.006;2022-09-20T07:18:28;5.05;;;2.50;;
14907;SDS011;7545;52.092;7.006;2022-09-20T07:20:55;3.47;;;1.90;;
14907;SDS011;7545;52.092;7.006;2022-09-20T07:23:23;6.05;;;2.63;;
14907;SDS011;7545;52.092;7.006;2022-09-20T07:25:49;8.02;;;1.92;;
14907;SDS011;7545;52.092;7.006;2022-09-20T07:28:16;7.70;;;1.75;;
14907;SDS011;7545;52.092;7.006;2022-09-20T07:30:43;3.13;;;1.85;;
14907;SDS011;7545;52.092;7.006;2022-09-20T07:33:09;2.70;;;2.25;;
14907;SDS011;7545;52.092;7.006;2022-09-20T07:35:35;5.18;;;2.25;;
14907;SDS011;7545;52.092;7.006;2022-09-20T07:38:01;7.45;;;2.30;;
14907;SDS011;7545;52.092;7.006;2022-09-20T07:40:27;4.95;;;2.22;;
14907;SDS011;7545;52.092;7.006;2022-09-20T07:42:54;8.95;;;3.13;;
14907;SDS011;7545;52.092;7.006;2022-09-20T07:45:20;6.25;;;1.73;;
14907;SDS011;7545;52.092;7.006;2022-09-20T07:47:47;3.17;;;2.10;;
14907;SDS011;7545;52.092;7.006;2022-09-20T07:50:13;2.08;;;1.80;;
14907;SDS011;7545;52.092;7.006;2022-09-20T07:52:39;4.28;;;2.70;;
14907;SDS011;7545;52.092;7.006;2022-09-20T07:55:04;3.38;;;2.00;;
14907;SDS011;7545;52.092;7.006;2022-09-20T07:57:33;2.88;;;1.50;;
14907;SDS011;7545;52.092;7.006;2022-09-20T08:00:01;4.43;;;1.90;;
14907;SDS011;7545;52.092;7.006;2022-09-20T08:02:28;4.47;;;1.83;;
14907;SDS011;7545;52.092;7.006;2022-09-20T08:04:53;5.68;;;1.70;;
14907;SDS011;7545;52.092;7.006;2022-09-20T08:07:19;5.30;;;1.60;;
14907;SDS011;7545;52.092;7.006;2022-09-20T08:09:45;5.43;;;1.80;;
14907;SDS011;7545;52.092;7.006;2022-09-20T08:12:10;3.15;;;1.55;;
14907;SDS011;7545;52.092;7.006;2022-09-20T08:14:38;2.92;;;1.27;;
14907;SDS011;7545;52.092;7.006;2022-09-20T08:17:04;6.00;;;1.35;;
14907;SDS011;7545;52.092;7.006;2022-09-20T08:19:30;2.47;;;1.30;;
14907;SDS011;7545;52.092;7.006;2022-09-20T08:21:56;5.78;;;1.55;;
14907;SDS011;7545;52.092;7.006;2022-09-20T08:24:21;4.22;;;1.55;;
14907;SDS011;7545;52.092;7.006;2022-09-20T08:26:49;2.47;;;1.52;;
14907;SDS011;7545;52.092;7.006;2022-09-20T08:29:14;4.00;;;1.42;;
14907;SDS011;7545;52.092;7.006;2022-09-20T08:31:40;5.80;;;1.40;;
14907;SDS011;7545;52.092;7.006;2022-09-20T08:34:07;3.05;;;1.30;;
14907;SDS011;7545;52.092;7.006;2022-09-20T08:36:35;3.67;;;1.00;;
14907;SDS011;7545;52.092;7.006;2022-09-20T08:39:05;4.30;;;1.33;;
14907;SDS011;7545;52.092;7.006;2022-09-20T08:41:32;3.40;;;1.48;;
14907;SDS011;7545;52.092;7.006;2022-09-20T08:46:51;1.92;;;1.13;;
14907;SDS011;7545;52.092;7.006;2022-09-20T08:49:31;3.38;;;1.50;;
14907;SDS011;7545;52.092;7.006;2022-09-20T08:51:58;3.17;;;1.25;;
14907;SDS011;7545;52.092;7.006;2022-09-20T08:54:26;3.03;;;1.20;;
14907;SDS011;7545;52.092;7.006;2022-09-20T08:56:55;3.42;;;0.90;;
14907;SDS011;7545;52.092;7.006;2022-09-20T08:59:23;3.10;;;1.20;;
14907;SDS011;7545;52.092;7.006;2022-09-20T09:01:50;1.75;;;1.00;;
14907;SDS011;7545;52.092;7.006;2022-09-20T09:04:18;1.73;;;0.98;;
14907;SDS011;7545;52.092;7.006;2022-09-20T09:06:47;5.03;;;0.98;;
14907;SDS011;7545;52.092;7.006;2022-09-20T09:09:20;2.83;;;1.23;;
14907;SDS011;7545;52.092;7.006;2022-09-20T09:11:49;3.72;;;1.50;;
14907;SDS011;7545;52.092;7.006;2022-09-20T09:14:32;2.47;;;0.95;;
14907;SDS011;7545;52.092;7.006;2022-09-20T09:17:20;3.38;;;0.80;;
14907;SDS011;7545;52.092;7.006;2022-09-20T09:19:58;6.55;;;1.10;;
14907;SDS011;7545;52.092;7.006;2022-09-20T09:22:41;5.90;;;1.55;;
14907;SDS011;7545;52.092;7.006;2022-09-20T09:25:22;3.47;;;1.17;;
14907;SDS011;7545;52.092;7.006;2022-09-20T09:30:36;6.35;;;0.95;;
14907;SDS011;7545;52.092;7.006;2022-09-20T09:35:55;1.48;;;0.82;;
14907;SDS011;7545;52.092;7.006;2022-09-20T09:38:24;2.72;;;1.00;;
14907;SDS011;7545;52.092;7.006;2022-09-20T09:40:58;2.25;;;0.70;;
14907;SDS011;7545;52.092;7.006;2022-09-20T09:43:29;5.57;;;1.15;;
14907;SDS011;7545;52.092;7.006;2022-09-20T09:46:15;2.63;;;1.08;;
14907;SDS011;7545;52.092;7.006;2022-09-20T09:48:46;7.18;;;1.85;;
14907;SDS011;7545;52.092;7.006;2022-09-20T09:53:41;2.50;;;1.27;;
14907;SDS011;7545;52.092;7.006;2022-09-20T09:56:15;3.00;;;1.02;;
14907;SDS011;7545;52.092;7.006;2022-09-20T10:01:43;2.92;;;1.00;;
14907;SDS011;7545;52.092;7.006;2022-09-20T10:04:27;3.72;;;0.80;;
14907;SDS011;7545;52.092;7.006;2022-09-20T10:17:49;3.97;;;0.52;;
14907;SDS011;7545;52.092;7.006;2022-09-20T10:33:57;1.40;;;0.50;;
14907;SDS011;7545;52.092;7.006;2022-09-20T10:36:45;2.40;;;0.77;;
14907;SDS011;7545;52.092;7.006;2022-09-20T10:42:45;2.17;;;0.73;;
14907;SDS011;7545;52.092;7.006;2022-09-20T10:45:18;2.10;;;0.52;;
14907;SDS011;7545;52.092;7.006;2022-09-20T10:48:02;5.13;;;0.70;;
14907;SDS011;7545;52.092;7.006;2022-09-20T10:50:47;2.30;;;1.05;;
14907;SDS011;7545;52.092;7.006;2022-09-20T11:10:24;2.55;;;1.00;;
14907;SDS011;7545;52.092;7.006;2022-09-20T11:13:01;2.47;;;0.60;;
14907;SDS011;7545;52.092;7.006;2022-09-20T11:15:34;4.47;;;1.10;;
14907;SDS011;7545;52.092;7.006;2022-09-20T11:18:24;4.82;;;0.75;;
14907;SDS011;7545;52.092;7.006;2022-09-20T11:26:49;3.08;;;0.75;;
14907;SDS011;7545;52.092;7.006;2022-09-20T11:29:24;3.40;;;0.50;;
14907;SDS011;7545;52.092;7.006;2022-09-20T11:32:14;4.78;;;0.85;;
14907;SDS011;7545;52.092;7.006;2022-09-20T11:34:48;3.63;;;1.40;;
14907;SDS011;7545;52.092;7.006;2022-09-20T11:37:19;3.83;;;0.90;;
14907;SDS011;7545;52.092;7.006;2022-09-20T11:39:50;3.40;;;0.60;;
14907;SDS011;7545;52.092;7.006;2022-09-20T11:42:20;1.95;;;0.60;;
14907;SDS011;7545;52.092;7.006;2022-09-20T11:44:51;1.67;;;0.50;;
14907;SDS011;7545;52.092;7.006;2022-09-20T11:47:25;1.75;;;0.93;;
14907;SDS011;7545;52.092;7.006;2022-09-20T11:56:21;4.15;;;1.00;;
14907;SDS011;7545;52.092;7.006;2022-09-20T12:01:38;1.75;;;0.55;;
14907;SDS011;7545;52.092;7.006;2022-09-20T12:07:00;3.83;;;0.73;;
14907;SDS011;7545;52.092;7.006;2022-09-20T12:09:59;4.82;;;0.60;;
14907;SDS011;7545;52.092;7.006;2022-09-20T12:12:37;2.42;;;0.70;;
14907;SDS011;7545;52.092;7.006;2022-09-20T12:15:04;2.97;;;0.77;;
14907;SDS011;7545;52.092;7.006;2022-09-20T12:36:36;3.55;;;1.30;;
14907;SDS011;7545;52.092;7.006;2022-09-20T12:39:16;2.30;;;0.93;;
14907;SDS011;7545;52.092;7.006;2022-09-20T12:41:56;4.57;;;1.70;;
14907;SDS011;7545;52.092;7.006;2022-09-20T12:47:21;2.13;;;1.27;;
14907;SDS011;7545;52.092;7.006;2022-09-20T12:49:50;4.25;;;0.73;;
14907;SDS011;7545;52.092;7.006;2022-09-20T12:57:56;4.60;;;0.70;;
14907;SDS011;7545;52.092;7.006;2022-09-20T13:03:22;1.83;;;0.63;;
14907;SDS011;7545;52.092;7.006;2022-09-20T13:08:34;3.88;;;1.63;;
14907;SDS011;7545;52.092;7.006;2022-09-20T13:11:09;2.47;;;0.60;;
14907;SDS011;7545;52.092;7.006;2022-09-20T13:19:05;2.00;;;0.80;;
14907;SDS011;7545;52.092;7.006;2022-09-20T13:21:37;3.85;;;1.08;;
14907;SDS011;7545;52.092;7.006;2022-09-20T13:24:04;3.63;;;0.50;;
14907;SDS011;7545;52.092;7.006;2022-09-20T13:26:38;8.60;;;1.23;;
14907;SDS011;7545;52.092;7.006;2022-09-20T13:29:06;6.35;;;1.25;;
14907;SDS011;7545;52.092;7.006;2022-09-20T13:31:34;3.58;;;0.93;;
14907;SDS011;7545;52.092;7.006;2022-09-20T13:34:13;1.27;;;0.60;;
14907;SDS011;7545;52.092;7.006;2022-09-20T13:36:43;0.82;;;0.60;;
14907;SDS011;7545;52.092;7.006;2022-09-20T13:39:20;2.28;;;0.65;;
14907;SDS011;7545;52.092;7.006;2022-09-20T13:41:48;3.22;;;0.73;;
14907;SDS011;7545;52.092;7.006;2022-09-20T13:44:15;2.20;;;1.13;;
14907;SDS011;7545;52.092;7.006;2022-09-20T13:46:42;3.20;;;0.80;;
14907;SDS011;7545;52.092;7.006;2022-09-20T13:49:16;3.53;;;1.00;;
14907;SDS011;7545;52.092;7.006;2022-09-20T13:51:47;1.65;;;0.80;;
14907;SDS011;7545;52.092;7.006;2022-09-20T13:57:00;2.22;;;0.70;;
14907;SDS011;7545;52.092;7.006;2022-09-20T13:59:32;0.85;;;0.68;;
14907;SDS011;7545;52.092;7.006;2022-09-20T14:02:04;1.58;;;0.60;;
14907;SDS011;7545;52.092;7.006;2022-09-20T14:04:47;3.42;;;0.70;;
14907;SDS011;7545;52.092;7.006;2022-09-20T14:07:21;1.52;;;0.60;;
14907;SDS011;7545;52.092;7.006;2022-09-20T14:09:50;2.80;;;0.75;;
14907;SDS011;7545;52.092;7.006;2022-09-20T14:12:16;4.78;;;0.77;;
14907;SDS011;7545;52.092;7.006;2022-09-20T14:14:42;4.50;;;0.65;;
14907;SDS011;7545;52.092;7.006;2022-09-20T14:17:10;1.35;;;0.50;;
14907;SDS011;7545;52.092;7.006;2022-09-20T14:19:40;0.88;;;0.32;;
14907;SDS011;7545;52.092;7.006;2022-09-20T14:22:07;0.68;;;0.40;;
14907;SDS011;7545;52.092;7.006;2022-09-20T14:24:53;0.95;;;0.50;;
14907;SDS011;7545;52.092;7.006;2022-09-20T14:27:23;5.95;;;1.23;;
14907;SDS011;7545;52.092;7.006;2022-09-20T14:29:49;2.60;;;0.90;;
14907;SDS011;7545;52.092;7.006;2022-09-20T14:37:29;2.53;;;0.90;;
14907;SDS011;7545;52.092;7.006;2022-09-20T14:39:58;4.20;;;1.00;;
14907;SDS011;7545;52.092;7.006;2022-09-20T14:45:22;2.67;;;0.75;;
14907;SDS011;7545;52.092;7.006;2022-09-20T14:48:26;2.85;;;0.90;;
14907;SDS011;7545;52.092;7.006;2022-09-20T14:53:52;1.85;;;0.50;;
14907;SDS011;7545;52.092;7.006;2022-09-20T14:56:41;2.17;;;0.82;;
14907;SDS011;7545;52.092;7.006;2022-09-20T15:01:53;2.75;;;1.23;;
14907;SDS011;7545;52.092;7.006;2022-09-20T15:04:21;1.90;;;1.00;;
14907;SDS011;7545;52.092;7.006;2022-09-20T15:06:49;1.58;;;0.47;;
14907;SDS011;7545;52.092;7.006;2022-09-20T15:09:15;4.88;;;0.80;;
14907;SDS011;7545;52.092;7.006;2022-09-20T15:11:43;2.58;;;0.50;;
14907;SDS011;7545;52.092;7.006;2022-09-20T15:14:09;2.42;;;0.50;;
14907;SDS011;7545;52.092;7.006;2022-09-20T15:16:34;2.78;;;0.60;;
14907;SDS011;7545;52.092;7.006;2022-09-20T15:19:00;1.38;;;0.85;;
14907;SDS011;7545;52.092;7.006;2022-09-20T15:21:26;3.28;;;1.00;;
14907;SDS011;7545;52.092;7.006;2022-09-20T15:23:51;3.25;;;1.10;;
14907;SDS011;7545;52.092;7.006;2022-09-20T15:26:21;4.07;;;1.42;;
14907;SDS011;7545;52.092;7.006;2022-09-20T15:28:46;1.85;;;0.80;;
14907;SDS011;7545;52.092;7.006;2022-09-20T15:31:12;2.97;;;0.85;;
14907;SDS011;7545;52.092;7.006;2022-09-20T15:33:39;0.90;;;0.50;;
14907;SDS011;7545;52.092;7.006;2022-09-20T15:36:05;3.13;;;1.45;;
14907;SDS011;7545;52.092;7.006;2022-09-20T15:38:31;0.82;;;0.50;;
14907;SDS011;7545;52.092;7.006;2022-09-20T15:40:58;3.10;;;1.25;;
14907;SDS011;7545;52.092;7.006;2022-09-20T15:43:27;4.70;;;0.90;;
14907;SDS011;7545;52.092;7.006;2022-09-20T15:45:55;2.78;;;0.75;;
14907;SDS011;7545;52.092;7.006;2022-09-20T15:48:24;4.05;;;1.35;;
14907;SDS011;7545;52.092;7.006;2022-09-20T15:50:58;4.38;;;1.38;;
14907;SDS011;7545;52.092;7.006;2022-09-20T15:53:25;4.28;;;1.20;;
14907;SDS011;7545;52.092;7.006;2022-09-20T15:55:59;3.65;;;1.00;;
14907;SDS011;7545;52.092;7.006;2022-09-20T15:58:29;7.10;;;1.20;;
14907;SDS011;7545;52.092;7.006;2022-09-20T16:01:06;1.27;;;0.90;;
14907;SDS011;7545;52.092;7.006;2022-09-20T16:03:35;1.83;;;0.75;;
14907;SDS011;7545;52.092;7.006;2022-09-20T16:06:02;3.33;;;1.00;;
14907;SDS011;7545;52.092;7.006;2022-09-20T16:08:33;4.82;;;0.90;;
14907;SDS011;7545;52.092;7.006;2022-09-20T16:11:00;2.53;;;0.77;;
14907;SDS011;7545;52.092;7.006;2022-09-20T16:13:26;1.50;;;0.70;;
14907;SDS011;7545;52.092;7.006;2022-09-20T16:15:56;2.60;;;1.13;;
14907;SDS011;7545;52.092;7.006;2022-09-20T16:18:23;2.80;;;0.80;;
14907;SDS011;7545;52.092;7.006;2022-09-20T16:21:07;4.68;;;1.25;;
14907;SDS011;7545;52.092;7.006;2022-09-20T16:23:36;3.50;;;0.98;;
14907;SDS011;7545;52.092;7.006;2022-09-20T16:26:03;4.30;;;0.73;;
14907;SDS011;7545;52.092;7.006;2022-09-20T16:28:36;1.67;;;0.70;;
14907;SDS011;7545;52.092;7.006;2022-09-20T16:31:05;3.03;;;0.80;;
14907;SDS011;7545;52.092;7.006;2022-09-20T16:33:50;3.85;;;0.80;;
14907;SDS011;7545;52.092;7.006;2022-09-20T16:36:15;2.38;;;0.60;;
14907;SDS011;7545;52.092;7.006;2022-09-20T16:38:42;2.67;;;0.60;;
14907;SDS011;7545;52.092;7.006;2022-09-20T16:41:08;4.45;;;0.60;;
14907;SDS011;7545;52.092;7.006;2022-09-20T16:43:34;2.25;;;1.02;;
14907;SDS011;7545;52.092;7.006;2022-09-20T16:46:01;3.28;;;0.73;;
14907;SDS011;7545;52.092;7.006;2022-09-20T16:48:26;1.45;;;0.90;;
14907;SDS011;7545;52.092;7.006;2022-09-20T16:50:54;2.38;;;0.98;;
14907;SDS011;7545;52.092;7.006;2022-09-20T16:53:20;2.95;;;1.10;;
14907;SDS011;7545;52.092;7.006;2022-09-20T16:55:45;3.13;;;1.05;;
14907;SDS011;7545;52.092;7.006;2022-09-20T16:58:12;1.17;;;0.70;;
14907;SDS011;7545;52.092;7.006;2022-09-20T17:00:38;2.53;;;0.90;;
14907;SDS011;7545;52.092;7.006;2022-09-20T17:03:04;3.15;;;1.20;;
14907;SDS011;7545;52.092;7.006;2022-09-20T17:05:30;5.55;;;1.42;;
14907;SDS011;7545;52.092;7.006;2022-09-20T17:07:55;4.32;;;1.35;;
14907;SDS011;7545;52.092;7.006;2022-09-20T17:10:21;1.90;;;1.08;;
14907;SDS011;7545;52.092;7.006;2022-09-20T17:12:48;6.93;;;3.92;;
14907;SDS011;7545;52.092;7.006;2022-09-20T17:15:16;5.55;;;3.50;;
14907;SDS011;7545;52.092;7.006;2022-09-20T17:17:43;4.90;;;2.42;;
14907;SDS011;7545;52.092;7.006;2022-09-20T17:20:09;5.60;;;2.67;;
14907;SDS011;7545;52.092;7.006;2022-09-20T17:22:34;3.70;;;1.90;;
14907;SDS011;7545;52.092;7.006;2022-09-20T17:25:00;2.85;;;1.65;;
14907;SDS011;7545;52.092;7.006;2022-09-20T17:27:26;8.70;;;4.03;;
14907;SDS011;7545;52.092;7.006;2022-09-20T17:29:52;8.65;;;6.40;;
14907;SDS011;7545;52.092;7.006;2022-09-20T17:32:17;10.40;;;6.78;;
14907;SDS011;7545;52.092;7.006;2022-09-20T17:34:44;9.77;;;5.38;;
14907;SDS011;7545;52.092;7.006;2022-09-20T17:37:10;5.72;;;3.58;;
14907;SDS011;7545;52.092;7.006;2022-09-20T17:39:36;2.55;;;1.95;;
14907;SDS011;7545;52.092;7.006;2022-09-20T17:42:01;4.97;;;1.88;;
14907;SDS011;7545;52.092;7.006;2022-09-20T17:44:27;2.08;;;1.73;;
14907;SDS011;7545;52.092;7.006;2022-09-20T17:46:53;7.28;;;1.63;;
14907;SDS011;7545;52.092;7.006;2022-09-20T17:49:19;5.50;;;1.50;;
14907;SDS011;7545;52.092;7.006;2022-09-20T17:51:50;4.05;;;1.17;;
14907;SDS011;7545;52.092;7.006;2022-09-20T17:54:17;5.55;;;1.90;;
14907;SDS011;7545;52.092;7.006;2022-09-20T17:56:43;5.85;;;1.70;;
14907;SDS011;7545;52.092;7.006;2022-09-20T17:59:14;2.33;;;1.35;;
14907;SDS011;7545;52.092;7.006;2022-09-20T18:01:41;4.50;;;2.00;;
14907;SDS011;7545;52.092;7.006;2022-09-20T18:04:08;3.28;;;1.27;;
14907;SDS011;7545;52.092;7.006;2022-09-20T18:06:35;3.63;;;1.88;;
14907;SDS011;7545;52.092;7.006;2022-09-20T18:09:03;4.35;;;2.00;;
14907;SDS011;7545;52.092;7.006;2022-09-20T18:11:31;4.82;;;2.08;;
14907;SDS011;7545;52.092;7.006;2022-09-20T18:13:59;2.85;;;1.98;;
14907;SDS011;7545;52.092;7.006;2022-09-20T18:16:26;4.07;;;2.63;;
14907;SDS011;7545;52.092;7.006;2022-09-20T18:18:52;5.65;;;2.55;;
14907;SDS011;7545;52.092;7.006;2022-09-20T18:21:19;3.28;;;2.42;;
14907;SDS011;7545;52.092;7.006;2022-09-20T18:23:47;3.60;;;2.47;;
14907;SDS011;7545;52.092;7.006;2022-09-20T18:26:15;3.40;;;2.47;;
14907;SDS011;7545;52.092;7.006;2022-09-20T18:31:49;4.45;;;2.72;;
14907;SDS011;7545;52.092;7.006;2022-09-20T18:34:19;4.20;;;2.45;;
14907;SDS011;7545;52.092;7.006;2022-09-20T18:36:48;4.35;;;2.58;;
14907;SDS011;7545;52.092;7.006;2022-09-20T18:41:48;5.43;;;2.40;;
14907;SDS011;7545;52.092;7.006;2022-09-20T18:44:14;3.03;;;2.35;;
14907;SDS011;7545;52.092;7.006;2022-09-20T18:46:42;5.43;;;3.42;;
14907;SDS011;7545;52.092;7.006;2022-09-20T18:49:08;3.40;;;2.00;;
14907;SDS011;7545;52.092;7.006;2022-09-20T18:51:36;4.28;;;2.17;;
14907;SDS011;7545;52.092;7.006;2022-09-20T18:54:02;6.50;;;2.08;;
14907;SDS011;7545;52.092;7.006;2022-09-20T18:56:29;3.42;;;2.22;;
14907;SDS011;7545;52.092;7.006;2022-09-20T19:01:32;4.03;;;2.00;;
14907;SDS011;7545;52.092;7.006;2022-09-20T19:15:18;3.35;;;1.80;;
14907;SDS011;7545;52.092;7.006;2022-09-20T19:20:54;2.60;;;1.52;;
14907;SDS011;7545;52.092;7.006;2022-09-20T19:25:59;4.43;;;1.80;;
14907;SDS011;7545;52.092;7.006;2022-09-20T19:28:46;1.77;;;1.35;;
14907;SDS011;7545;52.092;7.006;2022-09-20T19:31:18;2.85;;;1.67;;
14907;SDS011;7545;52.092;7.006;2022-09-20T19:33:48;4.28;;;1.70;;
14907;SDS011;7545;52.092;7.006;2022-09-20T19:36:17;2.72;;;1.85;;
14907;SDS011;7545;52.092;7.006;2022-09-20T19:39:02;3.03;;;2.03;;
14907;SDS011;7545;52.092;7.006;2022-09-20T19:41:43;6.07;;;2.80;;
14907;SDS011;7545;52.092;7.006;2022-09-20T19:44:22;3.17;;;2.10;;
14907;SDS011;7545;52.092;7.006;2022-09-20T19:49:54;2.60;;;2.28;;
14907;SDS011;7545;52.092;7.006;2022-09-20T19:52:26;4.38;;;1.80;;
14907;SDS011;7545;52.092;7.006;2022-09-20T19:54:52;4.40;;;2.22;;
14907;SDS011;7545;52.092;7.006;2022-09-20T19:57:19;5.45;;;3.15;;
14907;SDS011;7545;52.092;7.006;2022-09-20T19:59:57;5.97;;;2.35;;
14907;SDS011;7545;52.092;7.006;2022-09-20T20:02:23;4.22;;;2.17;;
14907;SDS011;7545;52.092;7.006;2022-09-20T20:04:49;3.80;;;2.10;;
14907;SDS011;7545;52.092;7.006;2022-09-20T20:20:34;4.30;;;1.63;;
14907;SDS011;7545;52.092;7.006;2022-09-20T20:28:49;2.35;;;1.50;;
14907;SDS011;7545;52.092;7.006;2022-09-20T20:31:15;3.35;;;1.73;;
14907;SDS011;7545;52.092;7.006;2022-09-20T20:33:41;2.00;;;1.33;;
14907;SDS011;7545;52.092;7.006;2022-09-20T20:36:07;1.50;;;1.10;;
14907;SDS011;7545;52.092;7.006;2022-09-20T20:38:35;2.88;;;1.70;;
14907;SDS011;7545;52.092;7.006;2022-09-20T20:41:02;2.10;;;1.48;;
14907;SDS011;7545;52.092;7.006;2022-09-20T20:43:30;1.58;;;1.40;;
14907;SDS011;7545;52.092;7.006;2022-09-20T20:45:57;3.42;;;1.48;;
14907;SDS011;7545;52.092;7.006;2022-09-20T20:48:22;2.88;;;1.40;;
14907;SDS011;7545;52.092;7.006;2022-09-20T20:50:57;3.17;;;1.70;;
14907;SDS011;7545;52.092;7.006;2022-09-20T20:53:30;1.85;;;1.20;;
14907;SDS011;7545;52.092;7.006;2022-09-20T20:56:06;3.50;;;1.73;;
14907;SDS011;7545;52.092;7.006;2022-09-20T20:58:34;5.10;;;1.48;;
14907;SDS011;7545;52.092;7.006;2022-09-20T21:03:37;1.73;;;1.30;;
14907;SDS011;7545;52.092;7.006;2022-09-20T21:06:04;4.75;;;1.42;;
14907;SDS011;7545;52.092;7.006;2022-09-20T21:08:33;4.32;;;1.77;;
14907;SDS011;7545;52.092;7.006;2022-09-20T21:11:01;4.75;;;1.88;;
14907;SDS011;7545;52.092;7.006;2022-09-20T21:13:35;2.72;;;1.38;;
14907;SDS011;7545;52.092;7.006;2022-09-20T21:16:10;3.22;;;1.88;;
14907;SDS011;7545;52.092;7.006;2022-09-20T21:18:38;2.15;;;1.60;;
14907;SDS011;7545;52.092;7.006;2022-09-20T21:21:18;2.30;;;1.73;;
14907;SDS011;7545;52.092;7.006;2022-09-20T21:23:46;6.18;;;1.90;;
14907;SDS011;7545;52.092;7.006;2022-09-20T21:26:13;2.92;;;1.65;;
14907;SDS011;7545;52.092;7.006;2022-09-20T21:28:43;2.15;;;1.55;;
14907;SDS011;7545;52.092;7.006;2022-09-20T21:31:13;5.50;;;2.10;;
14907;SDS011;7545;52.092;7.006;2022-09-20T21:33:39;4.10;;;1.67;;
14907;SDS011;7545;52.092;7.006;2022-09-20T21:36:06;3.60;;;1.92;;